ABB858 EBBR-VHHH
Flight info
| Callsign | ABB858 |
|---|---|
| Flight time | N/A |
| Altitude | 33000 |
| Route | ROUSY DCT GTQ DCT BEGAR DCT TRA DCT GAMSA DCT GEDSO DCT LUMUS DCT PODET DCT SMI DCT ETIDA DCT EKSOL DCT UDROS UM859 RERVA DCT OSDIP UM859 KARDE DCT ZERGE UN644 ROLIN DCT LAGAS M747 SUBUT T916 LEYLA N161 GASBI/K0898F330 N161 SARIN/K0898S1005 A368 FKG W192 ESDEX W191 DNC W565 BIGUX B330 KWE W181 DUDIT A599 POU R473 SIERA |
| Aircraft | B77L/H-SDE1E2E3FGHIJ2J3J4J5M1RWXY/LB1D1 |
Departure
| Time | 2026-05-04 18:42 |
|---|---|
| Airport | Brussels Airport (EBBR) |
Arrival
| Time | N/A |
|---|---|
| Airport | Hong Kong International Airport (VHHH) |
| Time | Latitude | Longitude | Altitude | Speed | Heading |
|---|---|---|---|---|---|
| 2026-05-04 18:20 | 50.90123 | 4.45226 | 146 ft | 0 kts | 335° |
| 2026-05-04 18:31 | 50.90104 | 4.45240 | 146 ft | 4 kts | 335° |
| 2026-05-04 18:31 | 50.90080 | 4.45258 | 146 ft | 4 kts | 335° |
| 2026-05-04 18:31 | 50.90058 | 4.45273 | 145 ft | 4 kts | 345° |
| 2026-05-04 18:31 | 50.90036 | 4.45272 | 146 ft | 4 kts | 47° |
| 2026-05-04 18:32 | 50.90023 | 4.45237 | 145 ft | 3 kts | 66° |
| 2026-05-04 18:32 | 50.90020 | 4.45224 | 145 ft | 0 kts | 65° |
| 2026-05-04 18:34 | 50.90026 | 4.45246 | 145 ft | 6 kts | 66° |
| 2026-05-04 18:34 | 50.90063 | 4.45380 | 146 ft | 22 kts | 66° |
| 2026-05-04 18:35 | 50.90154 | 4.45676 | 144 ft | 36 kts | 66° |
| 2026-05-04 18:35 | 50.90255 | 4.46031 | 141 ft | 34 kts | 65° |
| 2026-05-04 18:35 | 50.90346 | 4.46349 | 137 ft | 27 kts | 68° |
| 2026-05-04 18:35 | 50.90329 | 4.46595 | 129 ft | 22 kts | 119° |
| 2026-05-04 18:36 | 50.90262 | 4.46818 | 129 ft | 22 kts | 116° |
| 2026-05-04 18:36 | 50.90193 | 4.47040 | 126 ft | 22 kts | 116° |
| 2026-05-04 18:36 | 50.90132 | 4.47266 | 126 ft | 22 kts | 91° |
| 2026-05-04 18:36 | 50.90194 | 4.47515 | 121 ft | 29 kts | 65° |
| 2026-05-04 18:37 | 50.90289 | 4.47852 | 121 ft | 38 kts | 66° |
| 2026-05-04 18:37 | 50.90404 | 4.48261 | 122 ft | 42 kts | 66° |
| 2026-05-04 18:37 | 50.90529 | 4.48694 | 121 ft | 45 kts | 65° |
| 2026-05-04 18:37 | 50.90663 | 4.49152 | 123 ft | 44 kts | 64° |
| 2026-05-04 18:38 | 50.90761 | 4.49474 | 124 ft | 18 kts | 66° |
| 2026-05-04 18:38 | 50.90720 | 4.49580 | 127 ft | 16 kts | 184° |
| 2026-05-04 18:38 | 50.90576 | 4.49523 | 125 ft | 27 kts | 194° |
| 2026-05-04 18:38 | 50.90364 | 4.49438 | 124 ft | 36 kts | 194° |
| 2026-05-04 18:39 | 50.90102 | 4.49330 | 132 ft | 42 kts | 194° |
| 2026-05-04 18:39 | 50.89808 | 4.49211 | 147 ft | 43 kts | 194° |
| 2026-05-04 18:39 | 50.89598 | 4.49086 | 159 ft | 27 kts | 207° |
| 2026-05-04 18:39 | 50.89416 | 4.49008 | 166 ft | 27 kts | 193° |
| 2026-05-04 18:40 | 50.89283 | 4.48846 | 169 ft | 27 kts | 251° |
| 2026-05-04 18:40 | 50.89206 | 4.48508 | 168 ft | 37 kts | 249° |
| 2026-05-04 18:40 | 50.89116 | 4.48121 | 168 ft | 37 kts | 250° |
| 2026-05-04 18:40 | 50.89010 | 4.47909 | 174 ft | 19 kts | 173° |
| 2026-05-04 18:41 | 50.88943 | 4.48011 | 182 ft | 13 kts | 102° |
| 2026-05-04 18:41 | 50.88925 | 4.48109 | 183 ft | 12 kts | 87° |
| 2026-05-04 18:41 | 50.88997 | 4.48446 | 183 ft | 67 kts | 70° |
| 2026-05-04 18:41 | 50.89249 | 4.49535 | 181 ft | 142 kts | 70° |
| 2026-05-04 18:42 | 50.89636 | 4.51211 | 537 ft | 165 kts | 72° |
| 2026-05-04 18:42 | 50.90011 | 4.52886 | 1375 ft | 160 kts | 65° |
| 2026-05-04 18:42 | 50.90499 | 4.54469 | 2075 ft | 163 kts | 60° |
| 2026-05-04 18:42 | 50.91039 | 4.56094 | 2494 ft | 169 kts | 61° |
| 2026-05-04 18:43 | 50.91586 | 4.57747 | 2921 ft | 171 kts | 61° |
| 2026-05-04 18:43 | 50.92145 | 4.59441 | 3343 ft | 177 kts | 61° |
| 2026-05-04 18:43 | 50.92746 | 4.61263 | 3508 ft | 198 kts | 62° |
| 2026-05-04 18:43 | 50.93408 | 4.63280 | 3701 ft | 216 kts | 61° |
| 2026-05-04 18:44 | 50.94041 | 4.65581 | 3873 ft | 238 kts | 71° |
| 2026-05-04 18:44 | 50.94209 | 4.66437 | 4019 ft | 242 kts | 72° |
| 2026-05-04 18:44 | 50.95019 | 4.70870 | 4891 ft | 260 kts | 73° |
| 2026-05-04 18:44 | 50.95538 | 4.73666 | 5544 ft | 264 kts | 75° |
| 2026-05-04 18:45 | 50.95690 | 4.76567 | 6091 ft | 272 kts | 102° |
| 2026-05-04 18:45 | 50.94871 | 4.79223 | 6744 ft | 275 kts | 131° |
| 2026-05-04 18:45 | 50.93423 | 4.81271 | 7357 ft | 278 kts | 140° |
| 2026-05-04 18:45 | 50.91914 | 4.83232 | 8000 ft | 283 kts | 140° |
| 2026-05-04 18:46 | 50.90408 | 4.85203 | 8718 ft | 285 kts | 139° |
| 2026-05-04 18:46 | 50.88856 | 4.87181 | 9383 ft | 287 kts | 146° |
| 2026-05-04 18:46 | 50.86980 | 4.88294 | 9854 ft | 293 kts | 173° |
| 2026-05-04 18:46 | 50.84921 | 4.88552 | 10269 ft | 303 kts | 175° |
| 2026-05-04 18:47 | 50.82734 | 4.88857 | 10447 ft | 326 kts | 174° |
| 2026-05-04 18:47 | 50.80398 | 4.89206 | 10634 ft | 348 kts | 174° |
| 2026-05-04 18:47 | 50.77939 | 4.89580 | 10844 ft | 369 kts | 174° |
| 2026-05-04 18:47 | 50.75339 | 4.89981 | 11372 ft | 380 kts | 174° |
| 2026-05-04 18:48 | 50.72674 | 4.90396 | 12058 ft | 387 kts | 174° |
| 2026-05-04 18:48 | 50.69981 | 4.90816 | 12888 ft | 390 kts | 174° |
| 2026-05-04 18:48 | 50.67298 | 4.91425 | 13573 ft | 390 kts | 162° |
| 2026-05-04 18:48 | 50.64877 | 4.93383 | 14119 ft | 395 kts | 139° |
| 2026-05-04 18:49 | 50.62918 | 4.96393 | 14783 ft | 394 kts | 133° |
| 2026-05-04 18:49 | 50.60976 | 4.99485 | 15460 ft | 399 kts | 134° |
| 2026-05-04 18:49 | 50.59001 | 5.02572 | 16204 ft | 401 kts | 135° |
| 2026-05-04 18:49 | 50.57010 | 5.05665 | 16976 ft | 403 kts | 135° |
| 2026-05-04 18:50 | 50.55006 | 5.08768 | 17718 ft | 406 kts | 135° |
| 2026-05-04 18:50 | 50.52980 | 5.11901 | 18375 ft | 411 kts | 136° |
| 2026-05-04 18:50 | 50.50928 | 5.15067 | 18890 ft | 416 kts | 137° |
| 2026-05-04 18:50 | 50.48851 | 5.18266 | 19491 ft | 419 kts | 137° |
| 2026-05-04 18:51 | 50.46791 | 5.21434 | 20128 ft | 421 kts | 137° |
| 2026-05-04 18:51 | 50.44685 | 5.24670 | 20742 ft | 424 kts | 137° |
| 2026-05-04 18:51 | 50.42562 | 5.27926 | 21317 ft | 428 kts | 137° |
| 2026-05-04 18:51 | 50.40423 | 5.31202 | 21907 ft | 431 kts | 137° |
| 2026-05-04 18:52 | 50.38267 | 5.34502 | 22482 ft | 435 kts | 137° |
| 2026-05-04 18:52 | 50.36094 | 5.37821 | 23059 ft | 438 kts | 137° |
| 2026-05-04 18:52 | 50.33899 | 5.41171 | 23617 ft | 441 kts | 137° |
| 2026-05-04 18:52 | 50.31693 | 5.44532 | 24097 ft | 444 kts | 138° |
| 2026-05-04 18:53 | 50.29498 | 5.47873 | 24609 ft | 446 kts | 138° |
| 2026-05-04 18:53 | 50.27265 | 5.51267 | 25084 ft | 449 kts | 139° |
| 2026-05-04 18:53 | 50.25017 | 5.54678 | 25536 ft | 451 kts | 140° |
| 2026-05-04 18:53 | 50.22758 | 5.58101 | 26110 ft | 452 kts | 140° |
| 2026-05-04 18:54 | 50.20502 | 5.61517 | 26650 ft | 453 kts | 140° |
| 2026-05-04 18:54 | 50.18972 | 5.63830 | 26999 ft | 454 kts | 140° |
| 2026-05-04 18:54 | 50.16695 | 5.67269 | 27490 ft | 456 kts | 140° |
| 2026-05-04 18:54 | 50.14414 | 5.70711 | 27949 ft | 458 kts | 141° |
| 2026-05-04 18:55 | 50.12118 | 5.74168 | 28401 ft | 460 kts | 141° |
| 2026-05-04 18:55 | 50.07390 | 5.80738 | 29138 ft | 455 kts | 153° |
| 2026-05-04 18:55 | 50.04520 | 5.82654 | 29411 ft | 445 kts | 168° |
| 2026-05-04 18:56 | 50.01529 | 5.83941 | 29719 ft | 447 kts | 167° |
| 2026-05-04 18:56 | 49.98549 | 5.85383 | 30084 ft | 449 kts | 165° |
| 2026-05-04 18:56 | 49.95580 | 5.86911 | 30515 ft | 448 kts | 165° |
| 2026-05-04 18:56 | 49.92629 | 5.88460 | 30938 ft | 447 kts | 165° |
| 2026-05-04 18:57 | 49.89680 | 5.90006 | 31306 ft | 447 kts | 165° |
| 2026-05-04 18:57 | 49.86727 | 5.91544 | 31607 ft | 448 kts | 165° |
| 2026-05-04 18:57 | 49.83767 | 5.93073 | 31926 ft | 449 kts | 165° |
| 2026-05-04 18:57 | 49.80806 | 5.94595 | 32338 ft | 447 kts | 165° |
| 2026-05-04 18:58 | 49.77868 | 5.96103 | 32822 ft | 443 kts | 166° |
| 2026-05-04 18:58 | 49.74931 | 5.97606 | 32973 ft | 447 kts | 166° |
| 2026-05-04 18:58 | 49.69050 | 6.00605 | 32969 ft | 447 kts | 166° |
| 2026-05-04 18:59 | 49.63176 | 6.03600 | 32963 ft | 442 kts | 166° |
| 2026-05-04 18:59 | 49.59656 | 6.05390 | 32969 ft | 442 kts | 166° |